M I D A S
Marine Information and Data Acquisition System
Tripno 220 of the Zeeleeuw from 2002-02-21 08:39:20 to 2002-02-21 10:52:40
Back to CruiseResearch ActivitiesStationsMapUnderway DataData graphs

EquipmentUnitsComment
TimeDGPSUTC
LatitudeDGPSDM.mWGS84
LongitudeDGPSDM.mWGS84
HeadingGyrodeg 
SOGDGPSknotsSpeed over ground
COGDGPSdegCourse over ground
DepthEcho soundermeters200 kHz
Missing or incorrect values are displayed as -999
Navigation data collected by the RV Zeeleeuw from 2002-02-21 08:39:20 to 2002-02-21 10:52:40
                                                                                    Next 1000 lines
Time Latitude Longitude Heading SOG COG Depth
2002-02-21 08:39:26 51°13.686 2°55.904 109.5 0.1 5.4 7.7
2002-02-21 08:39:31 51°13.687 2°55.904 109.8 0.1 347.1 7.6
2002-02-21 08:39:36 51°13.687 2°55.903 110.3 0.4 312.1 7.6
2002-02-21 08:39:41 51°13.688 2°55.901 110.3 0.7 298.8 7.5
2002-02-21 08:39:46 51°13.689 2°55.898 109.7 1.2 296.7 7.7
2002-02-21 08:39:50 51°13.689 2°55.894 108.5 1.6 293.9 7.7
2002-02-21 08:39:57 51°13.691 2°55.886 107.3 2.5 290.1 -999
2002-02-21 08:40:02 51°13.692 2°55.88 106.5 2.9 288 -999
2002-02-21 08:40:07 51°13.694 2°55.872 106.2 3.4 287.8 -999
2002-02-21 08:40:12 51°13.695 2°55.864 105.8 3.8 287.6 -999
2002-02-21 08:40:17 51°13.697 2°55.855 105.2 4.1 287.2 -999
2002-02-21 08:40:22 51°13.698 2°55.845 104.2 4.4 286.6 -999
2002-02-21 08:40:27 51°13.7 2°55.835 102.3 4.7 285.5 -999
2002-02-21 08:40:32 51°13.702 2°55.824 100.3 4.8 284.6 -999
2002-02-21 08:40:37 51°13.703 2°55.815 98.8 4.7 283.1 -999
2002-02-21 08:40:42 51°13.705 2°55.805 97.3 4.5 282.5 -999
2002-02-21 08:40:46 51°13.706 2°55.798 96 4.3 281.4 10.9
2002-02-21 08:40:51 51°13.707 2°55.788 94.8 4.3 280.8 11.3
2002-02-21 08:40:56 51°13.707 2°55.779 93.5 4.4 279.4 12.9
2002-02-21 08:41:01 51°13.708 2°55.769 91.7 4.4 278.8 13.5
2002-02-21 08:41:06 51°13.709 2°55.76 89.8 4.2 277.2 -999
2002-02-21 08:41:11 51°13.71 2°55.751 87.3 4.1 276.4 13.4
2002-02-21 08:41:16 51°13.71 2°55.743 85.2 3.9 275 13.3
2002-02-21 08:41:21 51°13.71 2°55.735 83 3.7 274 13.1
2002-02-21 08:41:26 51°13.71 2°55.728 80.8 3.5 272.1 12.5
2002-02-21 08:41:31 51°13.711 2°55.72 78.5 3.4 271.2 12.2
2002-02-21 08:41:36 51°13.71 2°55.714 76.2 3.1 269.1 12.2
2002-02-21 08:41:41 51°13.71 2°55.708 73.7 2.7 269.3 12
2002-02-21 08:41:46 51°13.711 2°55.705 69.5 2.2 270.8 12.3
2002-02-21 08:41:51 51°13.712 2°55.703 64.2 1.2 289 12.3
2002-02-21 08:41:56 51°13.713 2°55.704 56 0.9 344.5 12.3
2002-02-21 08:42:00 51°13.716 2°55.705 47 1.5 16.4 12.3
2002-02-21 08:42:06 51°13.72 2°55.707 36.3 2.5 17.9 12
2002-02-21 08:42:11 51°13.725 2°55.708 26 3.1 13.1 11.7
2002-02-21 08:42:16 51°13.73 2°55.708 14.5 3.9 3 11.1
2002-02-21 08:42:21 51°13.737 2°55.707 3 4.5 356.4 11.3
2002-02-21 08:42:26 51°13.745 2°55.704 353.2 5.1 348.9 10.7
2002-02-21 08:42:31 51°13.753 2°55.699 345.8 5.9 341.2 10.2
2002-02-21 08:42:36 51°13.761 2°55.692 340 6.6 334.6 10
2002-02-21 08:42:41 51°13.77 2°55.684 338.5 7 333.1 10.3
2002-02-21 08:42:46 51°13.779 2°55.676 338.5 7.2 332.1 10.3
2002-02-21 08:42:51 51°13.789 2°55.669 338.3 7.6 332.7 10.6
2002-02-21 08:42:56 51°13.799 2°55.66 337.8 7.9 332.4 10.6
2002-02-21 08:43:01 51°13.809 2°55.652 338.2 8.1 332.9 10.7
2002-02-21 08:43:06 51°13.819 2°55.644 337.3 8.3 332.8 10.5
2002-02-21 08:43:11 51°13.83 2°55.635 337 8.5 332.7 10.5
2002-02-21 08:43:16 51°13.84 2°55.626 337.5 8.6 332.4 10.4
2002-02-21 08:43:21 51°13.851 2°55.617 338.8 8.8 333.6 10.2
2002-02-21 08:43:26 51°13.863 2°55.609 339.3 8.9 334.7 10.6
2002-02-21 08:43:31 51°13.874 2°55.601 339 9 335.1 10.6
2002-02-21 08:43:36 51°13.886 2°55.592 338.2 9.1 334.8 10.6
2002-02-21 08:43:41 51°13.897 2°55.583 338.7 9.2 334.7 10.7
2002-02-21 08:43:46 51°13.909 2°55.575 339.3 9.2 334.7 10.7
2002-02-21 08:43:51 51°13.92 2°55.566 340 9.2 335.2 10.8
2002-02-21 08:43:56 51°13.932 2°55.558 339.7 9.3 335.2 10.7
2002-02-21 08:44:01 51°13.944 2°55.549 339.7 9.3 334.8 10.4
2002-02-21 08:44:06 51°13.955 2°55.541 339.7 9.2 335.3 10.8
2002-02-21 08:44:11 51°13.967 2°55.532 339.3 9.2 335.1 10.8
2002-02-21 08:44:16 51°13.978 2°55.524 340.3 9.2 335.2 10.8
2002-02-21 08:44:21 51°13.99 2°55.515 340 9.3 335.9 10.8
2002-02-21 08:44:26 51°14.002 2°55.507 339.7 9.3 335.9 10.8
2002-02-21 08:44:31 51°14.014 2°55.498 339.7 9.3 335.6 10.8
2002-02-21 08:44:36 51°14.025 2°55.49 339.3 9.3 335.5 10.8
2002-02-21 08:44:41 51°14.037 2°55.481 339.8 9.3 335.4 10.8
2002-02-21 08:44:47 51°14.051 2°55.471 340.3 9.3 335.3 10.8
2002-02-21 08:44:51 51°14.061 2°55.464 340 9.3 335.4 10.6
2002-02-21 08:44:56 51°14.072 2°55.455 339 9.3 334.3 10.7
2002-02-21 08:45:01 51°14.084 2°55.446 339.7 9.3 334.4 10.7
2002-02-21 08:45:06 51°14.095 2°55.438 339.5 9.3 334.6 10.8
2002-02-21 08:45:11 51°14.107 2°55.429 339.5 9.3 334.8 10.7
2002-02-21 08:45:16 51°14.118 2°55.42 338.7 9.2 334.1 10.7
2002-02-21 08:45:21 51°14.13 2°55.41 338.2 9.2 333.6 10.6
2002-02-21 08:45:26 51°14.141 2°55.401 337.3 9.3 332.8 10.7
2002-02-21 08:45:31 51°14.152 2°55.392 337 9.2 332.3 10.7
2002-02-21 08:45:36 51°14.163 2°55.381 335.7 9.2 331.3 10.7
2002-02-21 08:45:41 51°14.174 2°55.371 334.7 9.2 330 10.7
2002-02-21 08:45:46 51°14.185 2°55.36 332.7 9.2 328.8 10.7
2002-02-21 08:45:51 51°14.196 2°55.349 331.2 9.2 327.3 10.7
2002-02-21 08:45:56 51°14.206 2°55.337 329.5 9.2 325.8 10.6
2002-02-21 08:46:01 51°14.216 2°55.325 327.5 9.2 323.9 10.6
2002-02-21 08:46:06 51°14.226 2°55.312 326.3 9.2 321.5 10.6
2002-02-21 08:46:11 51°14.236 2°55.299 325.3 9.2 320.8 10.7
2002-02-21 08:46:16 51°14.245 2°55.285 322.8 9.2 318.5 10.6
2002-02-21 08:46:21 51°14.254 2°55.271 320.5 9.2 316.6 10.5
2002-02-21 08:46:26 51°14.263 2°55.255 317.3 9.3 313.6 10.5
2002-02-21 08:46:31 51°14.271 2°55.24 315.3 9.3 311.6 10.6
2002-02-21 08:46:36 51°14.28 2°55.224 314.8 9.3 310.7 10.6
2002-02-21 08:46:41 51°14.288 2°55.208 314.5 9.3 310.2 10.6
2002-02-21 08:46:46 51°14.296 2°55.192 313.8 9.3 309.6 10.6
2002-02-21 08:46:51 51°14.304 2°55.176 313.5 9.3 308.2 10.4
2002-02-21 08:46:56 51°14.312 2°55.16 313.2 9.3 307.9 10.3
2002-02-21 08:47:01 51°14.32 2°55.143 314 9.3 307.7 10.2
2002-02-21 08:47:06 51°14.327 2°55.127 313.8 9.3 307.3 10.1
2002-02-21 08:47:11 51°14.335 2°55.11 313.8 9.2 306.5 10.1
2002-02-21 08:47:16 51°14.343 2°55.094 313.2 9.3 306.9 10.3
2002-02-21 08:47:21 51°14.35 2°55.078 313 9.2 306.6 10.5
2002-02-21 08:47:26 51°14.358 2°55.062 313.5 9.2 306.6 10.6
2002-02-21 08:47:31 51°14.366 2°55.046 313.7 9.2 307.9 10.5
2002-02-21 08:47:36 51°14.373 2°55.029 316 9 307.7 10.1
2002-02-21 08:47:41 51°14.381 2°55.015 318.2 8.9 308.6 9.9
2002-02-21 08:47:46 51°14.388 2°55.001 318.2 8.5 309.1 10
2002-02-21 08:47:51 51°14.396 2°54.986 320.3 8.5 310 10
2002-02-21 08:47:56 51°14.403 2°54.972 321.5 8.4 311 10.1
2002-02-21 08:48:01 51°14.412 2°54.959 324.7 8.5 313.6 10.4
2002-02-21 08:48:06 51°14.421 2°54.947 328.8 8.4 316.9 10.5
2002-02-21 08:48:11 51°14.43 2°54.936 332.2 8.2 321.4 10.8
2002-02-21 08:48:16 51°14.439 2°54.927 337.5 7.9 326.2 10.7
2002-02-21 08:48:21 51°14.448 2°54.919 342.8 7.7 329.5 10.4
2002-02-21 08:48:26 51°14.458 2°54.913 346.3 7.4 334.2 9.9
2002-02-21 08:48:31 51°14.466 2°54.907 350.7 7 336.6 9.6
2002-02-21 08:48:36 51°14.475 2°54.902 353.5 6.8 338.1 9.8
2002-02-21 08:48:41 51°14.484 2°54.897 356.5 6.7 340.6 10.1
2002-02-21 08:48:46 51°14.492 2°54.892 359.8 6.7 343.5 10.3
2002-02-21 08:48:51 51°14.501 2°54.89 5.8 6.6 347.5 10.5
2002-02-21 08:48:56 51°14.511 2°54.89 9.2 6.5 355.6 10.6
2002-02-21 08:49:01 51°14.52 2°54.889 13.3 6.7 356.9 10.7
2002-02-21 08:49:06 51°14.528 2°54.891 17.8 6.5 3.1 10.7
2002-02-21 08:49:11 51°14.537 2°54.892 16.8 6.3 4.1 10.7
2002-02-21 08:49:16 51°14.545 2°54.892 21.5 5.9 4.5 10.3
2002-02-21 08:49:21 51°14.552 2°54.896 22.3 5.5 9.9 10
2002-02-21 08:49:26 51°14.559 2°54.895 21.2 5.3 8 9.9
2002-02-21 08:49:31 51°14.566 2°54.898 22.2 5.3 8.9 9.9
2002-02-21 08:49:36 51°14.574 2°54.899 19.5 5.4 8.1 10
2002-02-21 08:49:40 51°14.58 2°54.9 19.7 5.5 6.7 10.1
2002-02-21 08:49:46 51°14.589 2°54.901 17.8 5.5 5.6 10.2
2002-02-21 08:49:51 51°14.597 2°54.9 15.2 5.5 2.4 10.2
2002-02-21 08:49:56 51°14.604 2°54.901 12 5.6 0.2 10.1
2002-02-21 08:50:01 51°14.612 2°54.899 9.3 5.8 355.5 10.2
2002-02-21 08:50:06 51°14.62 2°54.897 8 5.8 352.3 9.9
2002-02-21 08:50:11 51°14.628 2°54.896 6.3 5.8 352 10
2002-02-21 08:50:16 51°14.636 2°54.893 6.2 5.8 349.7 10.2
2002-02-21 08:50:21 51°14.644 2°54.891 6.5 5.8 350.4 10.1
2002-02-21 08:50:26 51°14.652 2°54.89 7.3 5.9 352.2 10.3
2002-02-21 08:50:31 51°14.661 2°54.888 8.8 6 353.7 10.1
2002-02-21 08:50:36 51°14.669 2°54.888 11 6.1 355.5 10
2002-02-21 08:50:41 51°14.678 2°54.888 10.5 6.2 357.9 10
2002-02-21 08:50:46 51°14.686 2°54.887 11.8 6.2 359.1 9.9
2002-02-21 08:50:51 51°14.695 2°54.888 14 6.3 2 10.2
2002-02-21 08:50:56 51°14.704 2°54.889 15.8 6.4 4.2 10.1
2002-02-21 08:51:01 51°14.713 2°54.89 17.2 6.4 3.4 10
2002-02-21 08:51:06 51°14.722 2°54.891 16.5 6.5 4.7 10
2002-02-21 08:51:11 51°14.731 2°54.892 14.8 6.5 4 10
2002-02-21 08:51:16 51°14.741 2°54.892 15 6.6 2.9 9.9
2002-02-21 08:51:21 51°14.75 2°54.892 14.2 6.7 1.5 9.8
2002-02-21 08:51:26 51°14.759 2°54.894 13.2 6.7 2.7 9.7
2002-02-21 08:51:31 51°14.769 2°54.894 13 6.7 1.5 9.6
2002-02-21 08:51:36 51°14.778 2°54.896 13.7 6.7 4.8 9.6
2002-02-21 08:51:41 51°14.787 2°54.897 14.2 6.8 4.1 9.5
2002-02-21 08:51:46 51°14.796 2°54.898 14.7 6.5 4.6 9.5
2002-02-21 08:51:51 51°14.805 2°54.901 16.5 6.5 6 9.5
2002-02-21 08:51:56 51°14.814 2°54.902 15.7 6.4 7.4 9.5
2002-02-21 08:52:01 51°14.823 2°54.903 17.5 6.5 6.5 9.5
2002-02-21 08:52:06 51°14.832 2°54.905 18.3 6.6 6.8 9.6
2002-02-21 08:52:11 51°14.841 2°54.908 17.5 6.7 8.3 9.6
2002-02-21 08:52:16 51°14.85 2°54.91 18.5 6.6 9.4 9.6
2002-02-21 08:52:21 51°14.859 2°54.912 21.2 6.6 9.5 9.5
2002-02-21 08:52:26 51°14.868 2°54.916 20 6.7 12 9.5
2002-02-21 08:52:31 51°14.877 2°54.917 21.2 6.5 10 9.4
2002-02-21 08:52:36 51°14.885 2°54.918 18.5 6.3 8.9 9.4
2002-02-21 08:52:41 51°14.894 2°54.919 12.5 6.2 3.6 9.5
2002-02-21 08:52:46 51°14.902 2°54.919 8.2 6.1 359 9.4
2002-02-21 08:52:51 51°14.911 2°54.916 3.8 6 353.7 9.6
2002-02-21 08:52:56 51°14.919 2°54.914 1.8 6.1 351.6 9.9
2002-02-21 08:53:01 51°14.928 2°54.91 359.5 6.3 346.7 9.9
2002-02-21 08:53:06 51°14.936 2°54.909 358.2 6.3 348.9 9.8
2002-02-21 08:53:11 51°14.945 2°54.904 358 6.3 345.8 9.6
2002-02-21 08:53:16 51°14.953 2°54.902 1 6.3 348.9 9.2
2002-02-21 08:53:21 51°14.962 2°54.9 358.3 6.2 348.8 9.3
2002-02-21 08:53:26 51°14.97 2°54.895 358.3 6.3 346.9 9.7
2002-02-21 08:53:31 51°14.978 2°54.893 0.2 6.3 347.8 9.6
2002-02-21 08:53:36 51°14.987 2°54.891 358.5 6.3 349.7 9.6
2002-02-21 08:53:41 51°14.996 2°54.888 0.2 6.2 349.2 9.5
2002-02-21 08:53:46 51°15.004 2°54.886 359.8 6.2 350.1 9.5
2002-02-21 08:53:51 51°15.012 2°54.883 359.3 6.1 350.2 9.6
2002-02-21 08:53:56 51°15.021 2°54.881 0.5 5.9 349.5 9.4
2002-02-21 08:54:01 51°15.029 2°54.877 358.3 6 347.1 9.3
2002-02-21 08:54:06 51°15.037 2°54.874 356.8 6.3 345.1 9.2
2002-02-21 08:54:11 51°15.046 2°54.871 354.8 6.3 345.7 9.4
2002-02-21 08:54:16 51°15.054 2°54.865 354.8 6.6 342 9.3
2002-02-21 08:54:21 51°15.063 2°54.862 354 6.6 342.8 9.2
2002-02-21 08:54:26 51°15.072 2°54.856 354.5 6.8 341.3 9.1
2002-02-21 08:54:31 51°15.081 2°54.852 354.8 6.7 342 8.9
2002-02-21 08:54:36 51°15.09 2°54.848 353 6.6 341.4 9
2002-02-21 08:54:41 51°15.098 2°54.843 353 6.6 340.5 8.9
2002-02-21 08:54:46 51°15.107 2°54.838 353.3 6.6 340 8.7
2002-02-21 08:54:51 51°15.116 2°54.834 353.8 6.7 342.1 8.6
2002-02-21 08:54:56 51°15.125 2°54.827 351.8 6.8 339.3 8.7
2002-02-21 08:55:01 51°15.135 2°54.822 350.8 7.2 340.2 8.7
2002-02-21 08:55:07 51°15.146 2°54.814 349.5 7.5 337.7 8.8
2002-02-21 08:55:11 51°15.154 2°54.809 349.3 7.6 337.8 8.9
2002-02-21 08:55:16 51°15.164 2°54.801 347.5 7.7 335.5 8.8
2002-02-21 08:55:21 51°15.174 2°54.795 349.2 7.7 337.2 8.8
2002-02-21 08:55:26 51°15.184 2°54.788 349.5 7.9 337.9 8.8
2002-02-21 08:55:31 51°15.195 2°54.783 352.2 8.1 340.8 8.9
2002-02-21 08:55:36 51°15.206 2°54.777 354.3 8.1 341.6 9
2002-02-21 08:55:40 51°15.215 2°54.774 355.3 8.3 344.1 9
2002-02-21 08:55:46 51°15.228 2°54.768 355.2 8.3 344.1 9
2002-02-21 08:55:51 51°15.239 2°54.761 354 8.4 341.5 8.9
2002-02-21 08:55:56 51°15.251 2°54.756 353 8.4 341.1 8.9
2002-02-21 08:56:01 51°15.262 2°54.748 350.7 8.8 340.2 8.9
2002-02-21 08:56:06 51°15.274 2°54.742 350.5 8.8 340.5 9
2002-02-21 08:56:11 51°15.285 2°54.735 350 8.7 339.3 9
2002-02-21 08:56:16 51°15.296 2°54.729 352.5 8.6 340.9 9
2002-02-21 08:56:21 51°15.307 2°54.723 353.2 8.7 340.8 9.1
2002-02-21 08:56:26 51°15.319 2°54.717 354 8.8 342.2 9.1
2002-02-21 08:56:31 51°15.33 2°54.711 353.7 8.7 342 9.2
2002-02-21 08:56:36 51°15.342 2°54.706 355 8.8 343.1 9.4
2002-02-21 08:56:41 51°15.354 2°54.701 355.7 8.8 343.9 9.2
2002-02-21 08:56:46 51°15.365 2°54.696 357 8.3 345 -999
2002-02-21 08:56:51 51°15.375 2°54.692 356.3 8 345.5 -999
2002-02-21 08:56:56 51°15.386 2°54.687 356.5 7.9 345.4 8.9
2002-02-21 08:57:01 51°15.397 2°54.684 357.3 8 346.4 9.1
2002-02-21 08:57:05 51°15.406 2°54.68 357 8.1 346.9 9.7
2002-02-21 08:57:11 51°15.418 2°54.676 358.2 8 347.4 9.5
2002-02-21 08:57:16 51°15.429 2°54.673 359.5 8 348.6 9.6
2002-02-21 08:57:21 51°15.441 2°54.67 359.3 8.1 350 9.5
2002-02-21 08:57:26 51°15.452 2°54.666 359.2 8.3 349.9 9.7
2002-02-21 08:57:31 51°15.464 2°54.664 1 8.4 351.2 9.7
2002-02-21 08:57:36 51°15.476 2°54.66 1 8.5 350.9 9.8
2002-02-21 08:57:41 51°15.488 2°54.658 1.5 8.6 351.6 9.9
2002-02-21 08:57:46 51°15.499 2°54.655 1.2 8.6 350.9 9.9
2002-02-21 08:57:51 51°15.511 2°54.652 1.3 8.7 351 9.9
2002-02-21 08:57:56 51°15.523 2°54.649 1.8 8.7 351.9 9.8
2002-02-21 08:58:01 51°15.535 2°54.646 2.5 8.7 351.4 9.8
2002-02-21 08:58:06 51°15.547 2°54.644 3 8.6 352.7 9.8
2002-02-21 08:58:11 51°15.558 2°54.641 2.7 8.5 352.6 10.1
2002-02-21 08:58:16 51°15.569 2°54.639 3.2 8.4 352.7 -999
2002-02-21 08:58:21 51°15.581 2°54.637 3.8 8.3 352.6 9.6
2002-02-21 08:58:26 51°15.593 2°54.635 3 8.3 352.7 9.6
2002-02-21 08:58:31 51°15.604 2°54.632 0.7 8.3 352.3 9.7
2002-02-21 08:58:36 51°15.615 2°54.628 358.2 8 349.5 9.8
2002-02-21 08:58:41 51°15.625 2°54.625 358.7 7.9 348.9 10.2
2002-02-21 08:58:46 51°15.636 2°54.621 356.7 7.9 348 10.2
2002-02-21 08:58:51 51°15.647 2°54.618 357.3 8.1 348.5 10.3
2002-02-21 08:58:56 51°15.658 2°54.614 357 8.2 348 10.4
2002-02-21 08:59:01 51°15.67 2°54.61 357.7 8.3 347.9 10.4
2002-02-21 08:59:06 51°15.681 2°54.605 355 8.3 345.9 -999
2002-02-21 08:59:11 51°15.692 2°54.6 353.7 8.3 344.6 10.1
2002-02-21 08:59:16 51°15.703 2°54.594 352.2 8.3 343.4 10.1
2002-02-21 08:59:21 51°15.714 2°54.589 351.8 8.5 342.5 10
2002-02-21 08:59:26 51°15.725 2°54.582 351.2 8.3 341.3 -999
2002-02-21 08:59:31 51°15.735 2°54.577 351.2 8.2 340.7 9.9
2002-02-21 08:59:36 51°15.746 2°54.571 351.7 8.3 340.5 10.1
2002-02-21 08:59:41 51°15.757 2°54.566 351.5 8.2 342 10.3
2002-02-21 08:59:47 51°15.77 2°54.559 351.5 8.1 342.9 10.4
2002-02-21 08:59:51 51°15.778 2°54.555 353.5 8 343 10.4
2002-02-21 08:59:56 51°15.789 2°54.551 353.7 8 344.4 10.5
2002-02-21 09:00:01 51°15.8 2°54.546 355.2 8 345.1 10.8
2002-02-21 09:00:06 51°15.81 2°54.543 355.5 8.1 347.2 11
2002-02-21 09:00:11 51°15.822 2°54.538 355.8 8.2 346.3 11
2002-02-21 09:00:16 51°15.832 2°54.534 356.7 8.1 346.5 11.2
2002-02-21 09:00:21 51°15.844 2°54.529 354.5 8.3 345.3 11.2
2002-02-21 09:00:26 51°15.855 2°54.525 355.2 8.4 345.9 11.2
2002-02-21 09:00:31 51°15.866 2°54.52 354.3 8.4 345.2 11.2
2002-02-21 09:00:36 51°15.877 2°54.515 354.8 8.4 345.5 11.2
2002-02-21 09:00:40 51°15.886 2°54.512 354 8.5 346.2 11.1
2002-02-21 09:00:46 51°15.9 2°54.505 354.5 8.5 344.8 11.1
2002-02-21 09:00:51 51°15.912 2°54.5 355.8 8.7 344.7 10.8
2002-02-21 09:00:56 51°15.924 2°54.495 353.3 8.7 344.4 10.8
2002-02-21 09:01:01 51°15.936 2°54.489 352.7 8.9 343.6 10.9
2002-02-21 09:01:06 51°15.947 2°54.483 352.7 9 343.8 10.7
2002-02-21 09:01:11 51°15.959 2°54.478 352.3 8.8 343.5 10.7
2002-02-21 09:01:16 51°15.97 2°54.474 354.5 8.6 344.8 10.7
2002-02-21 09:01:21 51°15.981 2°54.469 354.5 8.5 345.3 10.9
2002-02-21 09:01:26 51°15.993 2°54.463 353 8.5 343.9 11
2002-02-21 09:01:31 51°16.004 2°54.457 352.5 8.6 342.1 11.2
2002-02-21 09:01:35 51°16.013 2°54.452 351.2 8.7 341 11.4
2002-02-21 09:01:41 51°16.027 2°54.444 349.7 8.8 340.1 11.6
2002-02-21 09:01:46 51°16.039 2°54.437 350 8.8 339.7 11.6
2002-02-21 09:01:51 51°16.051 2°54.431 351.2 8.9 339.9 11.6
2002-02-21 09:01:56 51°16.062 2°54.424 351 9 340.1 11.7
2002-02-21 09:02:01 51°16.074 2°54.417 350.8 9 339.6 11.8
2002-02-21 09:02:06 51°16.086 2°54.41 350.2 9 339.9 11.7
2002-02-21 09:02:11 51°16.097 2°54.403 349.5 8.9 339.1 11.7
2002-02-21 09:02:16 51°16.108 2°54.396 349.5 8.8 338.6 11.7
2002-02-21 09:02:21 51°16.119 2°54.388 349.8 8.8 338.4 11.7
2002-02-21 09:02:26 51°16.131 2°54.382 350.2 8.8 339.1 11.8
2002-02-21 09:02:31 51°16.143 2°54.375 351.8 8.9 340.2 11.8
2002-02-21 09:02:36 51°16.154 2°54.368 350.5 8.9 340.1 11.7
2002-02-21 09:02:41 51°16.166 2°54.361 349.7 8.9 339.6 11.6
2002-02-21 09:02:46 51°16.177 2°54.355 349.7 8.9 340.1 11.6
2002-02-21 09:02:50 51°16.186 2°54.35 349.7 8.7 339.7 11.8
2002-02-21 09:02:56 51°16.2 2°54.342 349.8 8.7 338.9 11.6
2002-02-21 09:03:01 51°16.211 2°54.335 349.2 8.6 338.4 11.5
2002-02-21 09:03:06 51°16.221 2°54.328 348.8 8.4 338.5 11.4
2002-02-21 09:03:11 51°16.232 2°54.321 349.3 8.2 337.4 11.3
2002-02-21 09:03:16 51°16.242 2°54.314 351 8.2 338.7 11.5
2002-02-21 09:03:21 51°16.253 2°54.308 351 8.3 339.6 11.7
2002-02-21 09:03:26 51°16.264 2°54.302 351.5 8.2 340.2 11.8
2002-02-21 09:03:31 51°16.273 2°54.297 351.3 7.6 340.5 11.9
2002-02-21 09:03:36 51°16.281 2°54.292 351.3 6.9 339.1 11.9
2002-02-21 09:03:41 51°16.288 2°54.288 352.3 5.8 338.8 12
2002-02-21 09:03:46 51°16.292 2°54.284 353.3 4.3 336.4 12.1
2002-02-21 09:03:51 51°16.296 2°54.281 355.3 3.5 333.2 12.1
2002-02-21 09:03:56 51°16.298 2°54.278 357.3 2.5 333.7 12.2
2002-02-21 09:04:01 51°16.3 2°54.275 358.3 2.1 325.7 12.1
2002-02-21 09:04:06 51°16.302 2°54.274 359.3 1.6 326.6 12.1
2002-02-21 09:04:11 51°16.304 2°54.271 358.8 1.6 316 12.1
2002-02-21 09:04:15 51°16.305 2°54.27 359 1.3 323 12.1
2002-02-21 09:04:21 51°16.307 2°54.266 358.7 1.6 310.7 12
2002-02-21 09:04:26 51°16.308 2°54.267 0.7 1.2 320.2 11.9
2002-02-21 09:04:31 51°16.309 2°54.262 359 1.4 306.9 11.8
2002-02-21 09:04:36 51°16.309 2°54.261 1.5 1 315.5 12
2002-02-21 09:04:41 51°16.31 2°54.259 359.5 1.1 301.8 12
2002-02-21 09:04:46 51°16.311 2°54.258 0.7 0.9 307.5 12
2002-02-21 09:04:51 51°16.311 2°54.256 0.2 1 299.5 12
2002-02-21 09:04:56 51°16.311 2°54.254 1.2 0.8 296.9 12.2
2002-02-21 09:05:00 51°16.312 2°54.251 2 1.2 286 12.1
2002-02-21 09:05:06 51°16.312 2°54.252 2.2 0.6 285.3 12.1
2002-02-21 09:05:11 51°16.312 2°54.247 4.3 1.2 274.1 11.8
2002-02-21 09:05:16 51°16.312 2°54.248 4.8 0.7 282.6 11.9
2002-02-21 09:05:20 51°16.312 2°54.243 4.5 1.2 271.3 12
2002-02-21 09:05:26 51°16.312 2°54.244 6 0.5 260.6 12.1
2002-02-21 09:05:31 51°16.312 2°54.24 5.7 1.1 263.7 12.3
2002-02-21 09:05:36 51°16.311 2°54.239 6.5 0.9 256 12.5
2002-02-21 09:05:41 51°16.311 2°54.236 6.3 1.1 262.5 12.4
2002-02-21 09:05:46 51°16.311 2°54.235 8.2 0.7 256.4 12.3
2002-02-21 09:05:51 51°16.311 2°54.233 7.5 1 257.2 12.3
2002-02-21 09:05:56 51°16.31 2°54.232 8.2 0.8 246.8 12.2
2002-02-21 09:06:01 51°16.31 2°54.229 8.2 1 253 12.1
2002-02-21 09:06:06 51°16.309 2°54.228 10.7 0.8 237.6 12.2
2002-02-21 09:06:11 51°16.308 2°54.226 10 1 241.5 12.1
2002-02-21 09:06:16 51°16.308 2°54.224 10.3 0.9 240.7 11.9
2002-02-21 09:06:21 51°16.306 2°54.223 11 0.9 231.7 12
2002-02-21 09:06:26 51°16.306 2°54.221 10 1 243.7 11.9
2002-02-21 09:06:31 51°16.305 2°54.219 11.3 1 229.6 11.9
2002-02-21 09:06:36 51°16.304 2°54.216 10.8 1.2 237 11.9
2002-02-21 09:06:41 51°16.303 2°54.214 11.7 1.2 231.7 11.9
2002-02-21 09:06:46 51°16.302 2°54.213 12.5 1.1 224.1 11.9
2002-02-21 09:06:51 51°16.301 2°54.21 12.3 1.1 224.8 12
2002-02-21 09:06:56 51°16.299 2°54.209 13.5 1.1 213.7 12.1
2002-02-21 09:07:01 51°16.298 2°54.207 15 1.2 218.3 12
2002-02-21 09:07:06 51°16.297 2°54.206 16.2 1.2 216 11.9
2002-02-21 09:07:11 51°16.295 2°54.205 16.2 1.2 213.7 11.9
2002-02-21 09:07:16 51°16.294 2°54.202 18 1.3 217.3 12
2002-02-21 09:07:21 51°16.292 2°54.202 18.5 1.2 212.4 12.1
2002-02-21 09:07:26 51°16.291 2°54.197 18 1.5 225.8 12.3
2002-02-21 09:07:31 51°16.289 2°54.197 21.5 1.4 221.3 12.1
2002-02-21 09:07:36 51°16.288 2°54.195 18 1.4 211.9 11.9
2002-02-21 09:07:41 51°16.287 2°54.192 21.7 1.3 223.6 11.7
2002-02-21 09:07:46 51°16.285 2°54.192 20.5 1.2 217.1 11.7
2002-02-21 09:07:51 51°16.284 2°54.189 21.2 1.3 226.5 11.8
2002-02-21 09:07:56 51°16.282 2°54.189 21.3 1.2 217.9 11.8
2002-02-21 09:08:01 51°16.281 2°54.186 19.8 1.2 227.5 12
2002-02-21 09:08:06 51°16.28 2°54.185 21.3 1.1 218.6 12.2
2002-02-21 09:08:11 51°16.279 2°54.182 20 1.1 233.7 12.2
2002-02-21 09:08:16 51°16.278 2°54.181 21.5 1 220 12.4
2002-02-21 09:08:21 51°16.277 2°54.178 20.5 1.1 238.9 12.2
2002-02-21 09:08:26 51°16.276 2°54.178 19.7 0.9 233.5 12
2002-02-21 09:08:31 51°16.275 2°54.176 18.5 0.9 230.6 12
2002-02-21 09:08:36 51°16.275 2°54.173 20.5 1 240.5 11.9
2002-02-21 09:08:40 51°16.274 2°54.173 19.3 0.8 226.4 12
2002-02-21 09:08:46 51°16.273 2°54.17 19.5 1 241.4 12
2002-02-21 09:08:51 51°16.272 2°54.17 17.7 0.8 229.5 12
2002-02-21 09:08:56 51°16.272 2°54.167 17.3 1 239.3 12.1
2002-02-21 09:09:00 51°16.271 2°54.169 17 0.7 226.9 11.9
2002-02-21 09:09:06 51°16.27 2°54.166 15 0.8 230.6 11.9
2002-02-21 09:09:11 51°16.27 2°54.164 17.3 0.9 233.9 11.7
2002-02-21 09:09:16 51°16.269 2°54.163 16 0.8 239.9 11.7
2002-02-21 09:09:21 51°16.268 2°54.161 15 0.9 241.2 11.9
2002-02-21 09:09:26 51°16.268 2°54.16 14.7 0.7 236.7 12
2002-02-21 09:09:31 51°16.267 2°54.158 12 0.7 241.7 12.2
2002-02-21 09:09:36 51°16.267 2°54.156 13.5 0.8 248.7 12.1
2002-02-21 09:09:41 51°16.266 2°54.156 10.8 0.6 242.9 12
2002-02-21 09:09:46 51°16.266 2°54.154 8.8 0.8 240 12.1
2002-02-21 09:09:51 51°16.266 2°54.152 8.2 0.7 253.3 12.1
2002-02-21 09:09:56 51°16.265 2°54.151 6.3 0.8 255.2 12.1
2002-02-21 09:10:00 51°16.265 2°54.149 4.5 0.7 265.6 11.9
2002-02-21 09:10:06 51°16.265 2°54.147 4.3 0.8 264.6 11.9
2002-02-21 09:10:11 51°16.266 2°54.146 2.8 0.8 269.6 11.9
2002-02-21 09:10:16 51°16.265 2°54.143 0.5 0.8 267.5 12
2002-02-21 09:10:21 51°16.265 2°54.142 359.3 0.8 270.1 12.1
2002-02-21 09:10:26 51°16.265 2°54.138 357.8 1 272.5 12.1
2002-02-21 09:10:30 51°16.265 2°54.138 357.3 0.8 269.1 12
2002-02-21 09:10:36 51°16.265 2°54.135 355.3 0.9 266.8 11.8
2002-02-21 09:10:41 51°16.265 2°54.133 356.7 0.9 266.7 11.6
2002-02-21 09:10:46 51°16.265 2°54.131 356.5 0.8 269.7 11.8
2002-02-21 09:10:51 51°16.265 2°54.129 356.5 0.9 271.1 11.9
2002-02-21 09:10:56 51°16.265 2°54.126 357 0.9 275.3 12.1
2002-02-21 09:11:01 51°16.265 2°54.125 357.7 0.9 278.1 12.3
2002-02-21 09:11:06 51°16.265 2°54.122 358.5 1 275.3 12.3
2002-02-21 09:11:11 51°16.266 2°54.121 359.3 0.9 285.2 12.2
2002-02-21 09:11:16 51°16.266 2°54.117 359.3 1 278.6 12.3
2002-02-21 09:11:21 51°16.267 2°54.116 2 0.9 288.6 12.1
2002-02-21 09:11:26 51°16.267 2°54.114 0.8 0.9 281.7 11.9
2002-02-21 09:11:31 51°16.266 2°54.111 3 1 272 11.9
2002-02-21 09:11:36 51°16.267 2°54.11 3 0.9 282.1 11.9
2002-02-21 09:11:41 51°16.267 2°54.107 3.3 1 276.9 12
2002-02-21 09:11:46 51°16.267 2°54.107 4.2 0.9 280.9 11.9
2002-02-21 09:11:51 51°16.268 2°54.104 3.3 0.9 282.4 12
2002-02-21 09:11:56 51°16.268 2°54.103 6.3 0.6 277.5 11.9
2002-02-21 09:12:01 51°16.268 2°54.101 6.8 0.8 279.4 12
2002-02-21 09:12:06 51°16.268 2°54.1 9.3 0.6 278.1 11.8
2002-02-21 09:12:11 51°16.268 2°54.099 8.7 0.7 284 11.7
2002-02-21 09:12:16 51°16.268 2°54.096 10.3 0.7 273.8 11.8
2002-02-21 09:12:21 51°16.269 2°54.095 11.8 0.8 279.3 12
2002-02-21 09:12:26 51°16.269 2°54.093 11.5 0.7 282.9 12.1
2002-02-21 09:12:31 51°16.269 2°54.092 13.5 0.7 289 12.1
2002-02-21 09:12:36 51°16.27 2°54.09 13.7 0.9 285.8 12.2
2002-02-21 09:12:41 51°16.27 2°54.089 15.5 0.7 287.7 12.2
2002-02-21 09:12:46 51°16.27 2°54.087 15.7 0.6 280.5 12.1
2002-02-21 09:12:51 51°16.27 2°54.087 16.7 0.5 286.7 12.1
2002-02-21 09:12:56 51°16.27 2°54.083 17.5 0.7 276.4 12.1
2002-02-21 09:13:01 51°16.27 2°54.084 19.8 0.5 285.4 12.1
2002-02-21 09:13:06 51°16.27 2°54.08 18.5 0.7 281.2 12.2
2002-02-21 09:13:11 51°16.271 2°54.08 21.7 0.6 289.4 12.1
2002-02-21 09:13:16 51°16.271 2°54.078 20.2 0.7 292.2 12.2
2002-02-21 09:13:21 51°16.271 2°54.076 22.5 0.7 285.1 12
2002-02-21 09:13:26 51°16.271 2°54.076 23 0.6 297.6 12
2002-02-21 09:13:31 51°16.271 2°54.074 24.7 0.6 275.4 11.8
2002-02-21 09:13:36 51°16.272 2°54.074 25.7 0.5 282.2 11.8
2002-02-21 09:13:41 51°16.272 2°54.072 25.8 0.6 272.4 11.9
2002-02-21 09:13:46 51°16.272 2°54.071 27.5 0.6 276.7 12
2002-02-21 09:13:51 51°16.272 2°54.07 27.5 0.5 281.6 12.1
2002-02-21 09:13:56 51°16.272 2°54.069 29.2 0.5 279.6 12.1
2002-02-21 09:14:01 51°16.272 2°54.068 28 0.5 291.4 12.1
2002-02-21 09:14:06 51°16.272 2°54.066 29.7 0.7 287.8 12.1
2002-02-21 09:14:11 51°16.273 2°54.065 30 0.5 283.7 11.9
2002-02-21 09:14:16 51°16.273 2°54.066 26.8 0.3 278.6 11.8
2002-02-21 09:14:21 51°16.273 2°54.062 26.8 0.7 280.3 11.8
2002-02-21 09:14:26 51°16.273 2°54.063 25.5 0.3 271.1 11.8
2002-02-21 09:14:31 51°16.273 2°54.06 23.3 0.6 270.6 12
2002-02-21 09:14:36 51°16.272 2°54.06 24.2 0.4 255.8 12.1
2002-02-21 09:14:41 51°16.272 2°54.058 21.7 0.6 268.6 12.1
2002-02-21 09:14:46 51°16.272 2°54.058 19.3 0.4 263.1 12.2
2002-02-21 09:14:51 51°16.272 2°54.055 18 0.8 277.3 12.1
2002-02-21 09:14:56 51°16.272 2°54.056 16.2 0.4 262.7 12
2002-02-21 09:15:01 51°16.272 2°54.052 14.2 0.9 266.9 11.9
2002-02-21 09:15:05 51°16.272 2°54.053 12.7 0.5 268.7 11.9
2002-02-21 09:15:11 51°16.272 2°54.05 9.2 0.8 265.2 12
2002-02-21 09:15:16 51°16.272 2°54.049 8.5 0.5 259.7 12.1
2002-02-21 09:15:21 51°16.271 2°54.047 6.2 0.7 253.7 11.9
2002-02-21 09:15:26 51°16.271 2°54.046 6.8 0.6 259 11.7
2002-02-21 09:15:31 51°16.271 2°54.045 3 0.7 247.7 11.8
2002-02-21 09:15:36 51°16.271 2°54.042 1.8 0.9 259.3 12
2002-02-21 09:15:41 51°16.27 2°54.042 359.8 0.6 249.8 12.2
2002-02-21 09:15:46 51°16.27 2°54.039 358.3 0.8 250.9 12.1
2002-02-21 09:15:51 51°16.269 2°54.039 357.2 0.6 250.9 12.2
2002-02-21 09:15:56 51°16.269 2°54.036 356.7 0.8 248.9 12.2
2002-02-21 09:16:01 51°16.269 2°54.035 356.5 0.7 255.4 12.2
2002-02-21 09:16:06 51°16.268 2°54.033 355.2 0.8 251.7 12.3
2002-02-21 09:16:11 51°16.268 2°54.031 354.8 0.9 256.2 12.2
2002-02-21 09:16:16 51°16.267 2°54.03 355 0.7 252.2 12.1
2002-02-21 09:16:21 51°16.267 2°54.027 353.8 1 255.6 12
2002-02-21 09:16:26 51°16.266 2°54.026 354.2 0.8 247.4 11.8
2002-02-21 09:16:31 51°16.266 2°54.023 353.2 1 250.8 11.7
2002-02-21 09:16:36 51°16.266 2°54.021 354.8 0.9 248.3 11.9
2002-02-21 09:16:41 51°16.265 2°54.019 355 1 252.6 12
2002-02-21 09:16:46 51°16.265 2°54.017 354.7 1 253.2 12.1
2002-02-21 09:16:51 51°16.264 2°54.015 354.2 1 253.7 12.2
2002-02-21 09:16:56 51°16.264 2°54.012 354.7 1.1 255.4 12.1
2002-02-21 09:17:01 51°16.263 2°54.011 356.3 0.9 249.2 12
2002-02-21 09:17:06 51°16.263 2°54.008 356.2 1.1 256.9 11.9
2002-02-21 09:17:11 51°16.263 2°54.007 357 0.8 249.8 12
2002-02-21 09:17:16 51°16.263 2°54.004 357.2 1 263.5 11.9
2002-02-21 09:17:21 51°16.262 2°54.003 357.8 0.8 251.6 12.2
2002-02-21 09:17:26 51°16.262 2°54 359.3 1 254.8 12.1
2002-02-21 09:17:31 51°16.262 2°53.999 359.2 0.8 253.7 12.1
2002-02-21 09:17:36 51°16.261 2°53.996 359.7 0.9 254 11.9
2002-02-21 09:17:41 51°16.261 2°53.994 1.2 0.9 256.5 12
2002-02-21 09:17:46 51°16.26 2°53.992 1.3 1 253.7 12
2002-02-21 09:17:51 51°16.26 2°53.99 2.8 1 258.7 12.1
2002-02-21 09:17:56 51°16.26 2°53.988 2 1 256.7 12.2
2002-02-21 09:18:01 51°16.26 2°53.985 2.2 1.1 258.6 12.2
2002-02-21 09:18:06 51°16.259 2°53.984 2.3 0.9 257.2 12.2
2002-02-21 09:18:11 51°16.259 2°53.982 2.5 1 258.3 12.1
2002-02-21 09:18:16 51°16.259 2°53.981 4.3 0.7 256.4 12
2002-02-21 09:18:21 51°16.259 2°53.978 5.7 0.9 259.7 11.9
2002-02-21 09:18:26 51°16.258 2°53.977 6.7 0.7 258.5 11.8
2002-02-21 09:18:31 51°16.258 2°53.975 8.5 0.8 255.3 11.8
2002-02-21 09:18:36 51°16.257 2°53.973 11 0.8 248.1 11.9
2002-02-21 09:18:41 51°16.257 2°53.971 11.8 0.9 250.2 12
2002-02-21 09:18:46 51°16.257 2°53.97 12.3 0.9 247.7 12.2
2002-02-21 09:18:51 51°16.256 2°53.967 13.7 1 247.5 12.2
2002-02-21 09:18:56 51°16.255 2°53.967 13.7 0.8 240.3 12.1
2002-02-21 09:19:01 51°16.255 2°53.964 12.7 0.9 238.7 12.1
2002-02-21 09:19:06 51°16.254 2°53.962 14.3 1 238.9 12
2002-02-21 09:19:11 51°16.253 2°53.96 14.8 1 232.8 12
2002-02-21 09:19:16 51°16.252 2°53.959 15.8 0.9 218.5 12.1
2002-02-21 09:19:21 51°16.251 2°53.956 16 1.1 228.1 12.2
2002-02-21 09:19:26 51°16.25 2°53.956 16.3 1.1 229.1 12.1
2002-02-21 09:19:31 51°16.249 2°53.954 15.7 1.1 226.3 12.1
2002-02-21 09:19:36 51°16.247 2°53.952 18.8 1.1 223.6 11.9
2002-02-21 09:19:41 51°16.246 2°53.952 18.2 1.1 213.7 11.9
2002-02-21 09:19:46 51°16.245 2°53.949 19.3 1.2 219.5 12
2002-02-21 09:19:51 51°16.243 2°53.948 20 1.3 215 12
2002-02-21 09:19:56 51°16.242 2°53.946 20 1.4 228.8 12.1
2002-02-21 09:20:01 51°16.241 2°53.943 21.7 1.3 225.5 12.2
2002-02-21 09:20:06 51°16.239 2°53.942 22 1.3 224.6 12.2
2002-02-21 09:20:11 51°16.238 2°53.939 20.7 1.3 228.1 12.3
2002-02-21 09:20:16 51°16.236 2°53.937 20.8 1.4 220.6 12.3
2002-02-21 09:20:21 51°16.235 2°53.934 22.2 1.5 229.9 12.2
2002-02-21 09:20:26 51°16.233 2°53.935 20.3 1.3 208.3 12.1
2002-02-21 09:20:31 51°16.232 2°53.93 21 1.5 224.1 12
2002-02-21 09:20:36 51°16.231 2°53.929 23.2 1.3 214.7 11.9
2002-02-21 09:20:41 51°16.229 2°53.926 22.5 1.5 222.6 11.8
2002-02-21 09:20:45 51°16.228 2°53.926 21.2 1.4 220 11.7
2002-02-21 09:20:51 51°16.226 2°53.921 21.7 1.6 227.1 11.7
2002-02-21 09:20:56 51°16.224 2°53.92 23.8 1.5 218.5 11.7
2002-02-21 09:21:01 51°16.223 2°53.917 22 1.5 224.7 11.8
2002-02-21 09:21:06 51°16.221 2°53.916 23 1.5 211.3 12
2002-02-21 09:21:11 51°16.219 2°53.912 24 1.5 213.7 12.1
2002-02-21 09:21:16 51°16.218 2°53.911 25.8 1.7 216.3 12
2002-02-21 09:21:21 51°16.216 2°53.909 24.3 1.6 215 12
2002-02-21 09:21:25 51°16.214 2°53.907 27.3 1.7 219.3 11.9
2002-02-21 09:21:31 51°16.212 2°53.905 25.8 1.6 215.4 11.9
2002-02-21 09:21:36 51°16.21 2°53.901 29.2 1.7 221.4 11.9
2002-02-21 09:21:41 51°16.209 2°53.901 28 1.5 216.7 12
2002-02-21 09:21:46 51°16.207 2°53.897 30.2 1.7 225.6 12.1
2002-02-21 09:21:51 51°16.205 2°53.896 30.2 1.6 217.8 12.1
2002-02-21 09:21:56 51°16.203 2°53.892 31.2 1.8 222 12.2
2002-02-21 09:22:01 51°16.201 2°53.891 32.8 1.8 216.4 12.1
2002-02-21 09:22:06 51°16.2 2°53.888 31.5 1.7 221.8 12.1
2002-02-21 09:22:11 51°16.198 2°53.885 35 1.7 219.9 12
2002-02-21 09:22:16 51°16.196 2°53.884 33.3 1.6 215.9 11.9
2002-02-21 09:22:21 51°16.194 2°53.88 34.7 1.8 221.8 11.9
2002-02-21 09:22:26 51°16.192 2°53.88 37.5 1.7 207.9 11.9
2002-02-21 09:22:31 51°16.191 2°53.875 36.5 1.7 213.9 11.9
2002-02-21 09:22:36 51°16.188 2°53.875 39.7 1.8 216.6 11.9
2002-02-21 09:22:41 51°16.187 2°53.871 36 1.7 226.2 11.9
2002-02-21 09:22:46 51°16.184 2°53.87 39.3 1.8 214.7 12
2002-02-21 09:22:51 51°16.183 2°53.866 39.7 1.8 223.3 12.1
2002-02-21 09:22:56 51°16.181 2°53.865 42.5 1.6 216.7 12
2002-02-21 09:23:01 51°16.179 2°53.862 42.5 1.6 220.5 12.1
2002-02-21 09:23:06 51°16.177 2°53.86 45.8 1.7 221.3 11.9
2002-02-21 09:23:11 51°16.176 2°53.857 45.7 1.7 222.4 12
2002-02-21 09:23:16 51°16.174 2°53.854 51 1.8 223 12.1
2002-02-21 09:23:21 51°16.172 2°53.852 52 1.7 218.4 12.1
2002-02-21 09:23:26 51°16.171 2°53.849 52.8 1.5 221.6 12.2
2002-02-21 09:23:31 51°16.17 2°53.847 57.5 1.4 226 12.1
2002-02-21 09:23:36 51°16.167 2°53.847 57.7 1.3 209.4 12.2
2002-02-21 09:23:41 51°16.168 2°53.844 62.2 0.9 239.3 12.1
2002-02-21 09:23:46 51°16.166 2°53.844 66 0.9 200.5 12.1
2002-02-21 09:23:51 51°16.167 2°53.843 68.8 0.5 234 12.1
2002-02-21 09:23:56 51°16.165 2°53.843 75.2 0.5 195.8 11.9
2002-02-21 09:24:01 51°16.165 2°53.843 78.7 0.5 172 12
2002-02-21 09:24:06 51°16.164 2°53.844 85.8 0.5 156.5 11.8
2002-02-21 09:24:11 51°16.163 2°53.845 91.3 0.7 146.4 12
2002-02-21 09:24:16 51°16.163 2°53.846 96 0.8 144.3 11.9
2002-02-21 09:24:20 51°16.161 2°53.847 102.8 1.1 149.6 11.9
2002-02-21 09:24:26 51°16.161 2°53.85 106 1.1 121.7 11.9
2002-02-21 09:24:31 51°16.159 2°53.852 109.5 1.4 142.4 11.7
2002-02-21 09:24:36 51°16.156 2°53.854 113.5 1.5 141.9 11.6
2002-02-21 09:24:41 51°16.155 2°53.857 114.5 1.7 136.8 11.6
2002-02-21 09:24:46 51°16.152 2°53.859 114.8 1.8 142.8 11.4
2002-02-21 09:24:51 51°16.151 2°53.863 114.3 2 138 11.9
2002-02-21 09:24:56 51°16.149 2°53.866 113.8 2.1 138.2 12
2002-02-21 09:25:01 51°16.147 2°53.87 111.7 2.1 130.8 12.1
2002-02-21 09:25:06 51°16.144 2°53.873 110.8 2.3 130.5 12.2
2002-02-21 09:25:11 51°16.143 2°53.877 110.8 2.3 129.3 12.2
2002-02-21 09:25:16 51°16.141 2°53.882 106.5 2.3 121.2 12.1
2002-02-21 09:25:21 51°16.139 2°53.886 106.8 2.3 125.1 12
2002-02-21 09:25:26 51°16.137 2°53.891 104.7 2.4 120.6 12
2002-02-21 09:25:31 51°16.136 2°53.897 101.7 2.6 118.5 11.9
2002-02-21 09:25:36 51°16.135 2°53.903 99.7 2.8 117.6 11.9
2002-02-21 09:25:41 51°16.133 2°53.909 96.8 3 108.2 11.8
2002-02-21 09:25:46 51°16.132 2°53.917 94.7 3.2 105.2 11.8
2002-02-21 09:25:51 51°16.132 2°53.924 89.7 3.3 97.7 11.7
2002-02-21 09:25:56 51°16.131 2°53.933 87.8 3.7 94.1 11.8
2002-02-21 09:26:01 51°16.132 2°53.941 85.3 3.7 89.2 11.8
2002-02-21 09:26:06 51°16.132 2°53.95 85 3.9 91.7 11.8
2002-02-21 09:26:10 51°16.132 2°53.957 82.7 4.1 86.9 12
2002-02-21 09:26:16 51°16.134 2°53.968 82.5 4.1 84.7 11.8
2002-02-21 09:26:21 51°16.132 2°53.978 82.7 4.4 88.2 11.8
2002-02-21 09:26:26 51°16.134 2°53.988 83.5 4.5 84.2 11.8
2002-02-21 09:26:31 51°16.133 2°53.998 85.8 4.6 89 11.8
2002-02-21 09:26:36 51°16.134 2°54.009 90.5 4.7 87.5 11.7
2002-02-21 09:26:40 51°16.132 2°54.018 94.7 4.9 95.9 11.7
2002-02-21 09:26:46 51°16.131 2°54.031 97.7 5 98.5 11.6
2002-02-21 09:26:51 51°16.129 2°54.042 100.5 5.1 103.1 11.6
2002-02-21 09:26:56 51°16.126 2°54.052 107.3 5.1 106.8 11.7
2002-02-21 09:27:01 51°16.124 2°54.063 109.8 5.2 112.1 11.7
2002-02-21 09:27:06 51°16.119 2°54.074 110.8 5.4 116.4 11.8
2002-02-21 09:27:11 51°16.116 2°54.084 112 5.4 116.7 11.8
2002-02-21 09:27:16 51°16.113 2°54.095 109 5.4 117.9 11.7
2002-02-21 09:27:21 51°16.11 2°54.106 108.7 5.4 114.3 11.6
2002-02-21 09:27:26 51°16.107 2°54.117 106.2 5.4 113.6 11.6
2002-02-21 09:27:31 51°16.105 2°54.128 103.3 5.4 110.4 11.6
2002-02-21 09:27:36 51°16.104 2°54.14 99 5.3 106.8 11.5
2002-02-21 09:27:41 51°16.101 2°54.152 96 5.4 104.1 11.5
2002-02-21 09:27:46 51°16.101 2°54.163 91.7 5.4 100.2 11.5
2002-02-21 09:27:51 51°16.099 2°54.174 91.5 5.2 99.5 11.4
2002-02-21 09:27:56 51°16.101 2°54.186 86.8 5.2 91.6 11.2
2002-02-21 09:28:01 51°16.098 2°54.198 88.7 5.3 97 11.3
2002-02-21 09:28:06 51°16.099 2°54.209 87.2 5.1 92.3 11.3
2002-02-21 09:28:11 51°16.098 2°54.221 86.5 5.2 92.2 11.2
2002-02-21 09:28:16 51°16.098 2°54.233 86 5.4 93 11.3
2002-02-21 09:28:21 51°16.098 2°54.244 85.8 5.3 90.1 11.4
2002-02-21 09:28:26 51°16.099 2°54.256 85.8 5.2 87.8 11.4
2002-02-21 09:28:31 51°16.097 2°54.269 85.8 5.5 92.7 11.4
2002-02-21 09:28:36 51°16.098 2°54.281 86.8 5.5 92.5 11.6
2002-02-21 09:28:41 51°16.097 2°54.293 88.5 5.5 92.7 11.4
2002-02-21 09:28:46 51°16.096 2°54.305 88.5 5.7 95.9 11.5
2002-02-21 09:28:51 51°16.096 2°54.318 90.7 5.6 94.3 11.7
2002-02-21 09:28:56 51°16.095 2°54.33 91.7 5.7 95.4 11.7
2002-02-21 09:29:01 51°16.094 2°54.343 91 5.8 95.8 11.8
2002-02-21 09:29:06 51°16.093 2°54.356 92.8 5.8 97.5 11.8
2002-02-21 09:29:11 51°16.092 2°54.368 93.8 5.7 97.6 11.8
2002-02-21 09:29:16 51°16.09 2°54.381 95 5.9 100 11.8
2002-02-21 09:29:21 51°16.089 2°54.394 94.7 5.9 98.6 11.6
2002-02-21 09:29:26 51°16.087 2°54.407 96.7 5.9 100.5 11.5
2002-02-21 09:29:31 51°16.086 2°54.42 97.8 6 100.9 11.5
2002-02-21 09:29:36 51°16.084 2°54.433 97.3 6 99.8 11.4
2002-02-21 09:29:41 51°16.083 2°54.446 97.3 5.9 100.5 11.4
2002-02-21 09:29:46 51°16.081 2°54.459 94.5 5.9 98.3 11.3
2002-02-21 09:29:51 51°16.082 2°54.471 91.7 5.8 93.8 11.2
2002-02-21 09:29:56 51°16.081 2°54.484 88.2 5.7 91.6 11.2
2002-02-21 09:30:01 51°16.082 2°54.496 84.3 5.7 88.1 11.3
2002-02-21 09:30:06 51°16.083 2°54.508 82.5 5.6 86.6 11.3
2002-02-21 09:30:11 51°16.083 2°54.52 82.2 5.5 84.5 11.2
2002-02-21 09:30:16 51°16.086 2°54.532 80.2 5.5 80.8 11.1
2002-02-21 09:30:21 51°16.085 2°54.544 81.7 5.5 85.3 11
2002-02-21 09:30:26 51°16.088 2°54.556 82 5.5 79.4 10.9
2002-02-21 09:30:31 51°16.087 2°54.569 85.2 5.5 85.3 10.9
2002-02-21 09:30:36 51°16.088 2°54.581 85.2 5.6 85 11
2002-02-21 09:30:41 51°16.088 2°54.593 89 5.6 89.4 11.1
2002-02-21 09:30:46 51°16.087 2°54.605 90.2 5.5 93.9 11.2
2002-02-21 09:30:51 51°16.086 2°54.618 93.8 5.6 95.9 11.1
2002-02-21 09:30:56 51°16.084 2°54.63 97.3 5.5 100.1 11.2
2002-02-21 09:31:01 51°16.082 2°54.641 102.2 5.4 103.4 11.1
2002-02-21 09:31:06 51°16.08 2°54.655 104.5 5.7 104.1 11.1
2002-02-21 09:31:11 51°16.078 2°54.667 101.7 5.8 106.7 10.9
2002-02-21 09:31:16 51°16.075 2°54.678 105.7 5.7 110.8 10.6
2002-02-21 09:31:21 51°16.074 2°54.692 101.5 5.9 106 10.6
2002-02-21 09:31:26 51°16.071 2°54.703 101.3 5.8 102.7 10.4
2002-02-21 09:31:31 51°16.071 2°54.716 98.3 5.6 99.4 10.3
2002-02-21 09:31:36 51°16.068 2°54.728 97.3 5.7 102.6 10.4
2002-02-21 09:31:41 51°16.069 2°54.741 93.3 5.8 93.9 10.6
2002-02-21 09:31:46 51°16.067 2°54.753 92.8 5.5 96 10.8
2002-02-21 09:31:51 51°16.067 2°54.765 89.5 5.6 92.7 11
2002-02-21 09:31:56 51°16.067 2°54.777 88 5.6 90.5 11.2
2002-02-21 09:32:01 51°16.067 2°54.789 87.7 5.5 90.8 11.2
2002-02-21 09:32:06 51°16.067 2°54.802 86 5.5 86.4 11.1
2002-02-21 09:32:11 51°16.068 2°54.814 84.2 5.7 88.1 11
2002-02-21 09:32:16 51°16.068 2°54.826 86.8 5.5 87.3 10.8
2002-02-21 09:32:21 51°16.069 2°54.839 85.3 5.6 87.3 10.8
2002-02-21 09:32:26 51°16.069 2°54.852 86.5 5.7 87.1 10.7
2002-02-21 09:32:31 51°16.068 2°54.864 89.7 5.5 90.4 10.4
2002-02-21 09:32:36 51°16.069 2°54.877 88.2 5.8 90.5 10.5
2002-02-21 09:32:41 51°16.068 2°54.889 91.8 5.6 93.3 10.4
2002-02-21 09:32:46 51°16.066 2°54.901 95.3 5.7 98.9 10.5
2002-02-21 09:32:51 51°16.066 2°54.915 93.8 5.8 96.3 10.5
2002-02-21 09:32:56 51°16.063 2°54.926 97 5.6 100.8 10.5
2002-02-21 09:33:01 51°16.063 2°54.938 97.7 5.6 99.3 10.6
2002-02-21 09:33:06 51°16.061 2°54.952 95.7 5.9 102.8 10.5
2002-02-21 09:33:11 51°16.06 2°54.964 97.2 5.8 99.5 10.7
2002-02-21 09:33:16 51°16.059 2°54.977 97.2 5.7 97.5 10.6
2002-02-21 09:33:21 51°16.058 2°54.99 95.2 5.9 97.8 10.6
2002-02-21 09:33:26 51°16.057 2°55.003 94.7 5.9 99.2 10.7
2002-02-21 09:33:31 51°16.056 2°55.016 93.7 5.8 96.5 10.5
2002-02-21 09:33:36 51°16.056 2°55.029 89.7 5.9 91.4 10.5
2002-02-21 09:33:41 51°16.056 2°55.041 88.7 5.7 90.7 10.5
2002-02-21 09:33:46 51°16.056 2°55.054 84.8 5.7 88.2 10.6
2002-02-21 09:33:51 51°16.058 2°55.066 83.7 5.6 83.8 10.4
2002-02-21 09:33:56 51°16.058 2°55.078 80.2 5.5 85.8 10.4
2002-02-21 09:34:01 51°16.061 2°55.089 75.7 5.4 76.3 10.3
2002-02-21 09:34:06 51°16.062 2°55.101 73.8 5.4 74.5 10.4
2002-02-21 09:34:11 51°16.065 2°55.112 71.8 5.3 72.2 10.3
2002-02-21 09:34:16 51°16.067 2°55.124 71.2 5.4 72.9 10.3
2002-02-21 09:34:21 51°16.071 2°55.134 69.7 5.4 68.1 10.2
2002-02-21 09:34:26 51°16.072 2°55.146 70.7 5.4 71.6 10.2
2002-02-21 09:34:31 51°16.075 2°55.157 69.3 5.5 67.8 10.3
2002-02-21 09:34:36 51°16.077 2°55.169 72.8 5.4 73 10.3
2002-02-21 09:34:41 51°16.08 2°55.181 74.7 5.5 71.9 10.3
2002-02-21 09:34:46 51°16.08 2°55.193 77.8 5.5 77.9 10.5
2002-02-21 09:34:51 51°16.082 2°55.204 82.3 5.5 78.1 10.4
2002-02-21 09:34:56 51°16.082 2°55.217 83.5 5.5 84.1 10.3
2002-02-21 09:35:01 51°16.084 2°55.228 83.2 5.5 82.5 10.3
2002-02-21 09:35:06 51°16.085 2°55.24 80.2 5.4 80.3 10.3
2002-02-21 09:35:11 51°16.087 2°55.251 75.5 5.3 75.5 10.2
2002-02-21 09:35:16 51°16.09 2°55.262 70.8 5.4 72.2 10.2
2002-02-21 09:35:21 51°16.092 2°55.274 71.3 5.4 70.6 10.1
2002-02-21 09:35:26 51°16.095 2°55.285 68.2 5.5 68.4 10
2002-02-21 09:35:31 51°16.098 2°55.295 68.7 5.4 67.7 10.1
2002-02-21 09:35:36 51°16.101 2°55.307 66.5 5.5 66.7 10.2
2002-02-21 09:35:41 51°16.104 2°55.317 67.5 5.4 66.3 10.4
2002-02-21 09:35:46 51°16.107 2°55.328 68 5.4 65.4 10.4
2002-02-21 09:35:51 51°16.11 2°55.339 69 5.5 65.5 10.4
2002-02-21 09:35:56 51°16.113 2°55.35 70.5 5.4 68 10.4
2002-02-21 09:36:00 51°16.116 2°55.359 70.5 5.4 65 10.2
2002-02-21 09:36:06 51°16.119 2°55.373 69.2 5.5 67.8 10.2
2002-02-21 09:36:11 51°16.123 2°55.383 68.8 5.5 65.2 10.2
2002-02-21 09:36:16 51°16.125 2°55.395 67.8 5.5 65.2 10.2
2002-02-21 09:36:21 51°16.129 2°55.405 66.7 5.5 63.2 10.1
2002-02-21 09:36:26 51°16.131 2°55.417 65.5 5.5 66.6 10.1
2002-02-21 09:36:31 51°16.137 2°55.427 63.7 5.5 60.9 10
2002-02-21 09:36:36 51°16.139 2°55.437 67.5 5.4 64.7 9.9
2002-02-21 09:36:41 51°16.143 2°55.448 68.7 5.4 63.4 9.7
2002-02-21 09:36:46 51°16.145 2°55.46 67.5 5.4 67.2 9.8
2002-02-21 09:36:51 51°16.148 2°55.47 68.2 5.4 65.8 9.8
2002-02-21 09:36:56 51°16.15 2°55.482 68 5.4 69.7 9.8
2002-02-21 09:37:01 51°16.153 2°55.493 66.5 5.4 67.6 9.9
2002-02-21 09:37:06 51°16.157 2°55.503 65 5.4 64.8 10
2002-02-21 09:37:11 51°16.16 2°55.514 65.8 5.3 65.8 10.3
2002-02-21 09:37:16 51°16.164 2°55.524 63.8 5.3 62.4 10.3
2002-02-21 09:37:21 51°16.166 2°55.535 63.5 5.4 63.3 10.4
2002-02-21 09:37:26 51°16.17 2°55.545 61.2 5.3 62.1 10.2
2002-02-21 09:37:31 51°16.174 2°55.554 61 5.3 57.3 10.1
2002-02-21 09:37:36 51°16.177 2°55.565 60.2 5.3 58.7 10.1
2002-02-21 09:37:41 51°16.182 2°55.574 58.7 5.2 54.9 10.1
2002-02-21 09:37:46 51°16.186 2°55.584 60.5 5.3 55.9 10.2
2002-02-21 09:37:51 51°16.189 2°55.594 60 5.2 58.2 10.4
2002-02-21 09:37:56 51°16.194 2°55.604 63.5 5.3 58.7 10.3
2002-02-21 09:38:01 51°16.196 2°55.615 65.7 5.3 63.4 10.1
2002-02-21 09:38:06 51°16.199 2°55.626 68.2 5.4 65.1 10.2
2002-02-21 09:38:11 51°16.201 2°55.637 72 5.3 69.2 10
2002-02-21 09:38:16 51°16.203 2°55.649 75.2 5.4 72.9 10.1
2002-02-21 09:38:21 51°16.204 2°55.66 79.5 5.4 78.8 10.1
2002-02-21 09:38:26 51°16.206 2°55.672 82.7 5.3 83 10.1
2002-02-21 09:38:31 51°16.205 2°55.684 84.5 5.4 86.1 10
2002-02-21 09:38:36 51°16.205 2°55.696 86.5 5.4 88.6 10.1
2002-02-21 09:38:41 51°16.206 2°55.708 86.5 5.5 87.3 10
2002-02-21 09:38:46 51°16.205 2°55.721 85 5.6 90.6 10
2002-02-21 09:38:51 51°16.207 2°55.732 83.3 5.3 82.7 9.8
2002-02-21 09:38:56 51°16.207 2°55.744 82.8 5.4 88.8 9.7
2002-02-21 09:39:01 51°16.209 2°55.756 77 5.3 79.3 9.8
2002-02-21 09:39:06 51°16.211 2°55.766 75.5 5.2 79 9.8
2002-02-21 09:39:11 51°16.213 2°55.777 72.5 5 72.9 9.9
2002-02-21 09:39:16 51°16.216 2°55.786 66.2 4.7 67.7 10
2002-02-21 09:39:21 51°16.218 2°55.794 64.7 4.5 64.6 9.9
2002-02-21 09:39:26 51°16.221 2°55.802 63.7 4.2 60.6 9.9
2002-02-21 09:39:31 51°16.223 2°55.811 63 4.1 61.2 10
2002-02-21 09:39:36 51°16.227 2°55.817 59.2 3.9 59.1 9.9
2002-02-21 09:39:41 51°16.229 2°55.824 61.5 3.7 58.3 9.8
2002-02-21 09:39:46 51°16.232 2°55.83 59 3.7 54.8 9.7
2002-02-21 09:39:51 51°16.234 2°55.837 58.3 3.5 57.5 9.8
2002-02-21 09:39:56 51°16.237 2°55.842 55.7 3.3 54.9 9.9
2002-02-21 09:40:01 51°16.24 2°55.847 57 3.2 50.4 9.9
2002-02-21 09:40:06 51°16.242 2°55.854 53.7 3.2 52.1 10
2002-02-21 09:40:11 51°16.246 2°55.858 51.5 3 47.1 10.1
2002-02-21 09:40:16 51°16.249 2°55.862 51.7 2.9 45.7 10.1
2002-02-21 09:40:21 51°16.251 2°55.867 51.5 2.9 46.4 9.9
2002-02-21 09:40:26 51°16.254 2°55.872 51.7 2.8 48.1 9.8
2002-02-21 09:40:31 51°16.256 2°55.876 51.7 2.7 47.9 9.8
2002-02-21 09:40:36 51°16.258 2°55.881 54.2 2.6 53 9.8
2002-02-21 09:40:41 51°16.26 2°55.885 55 2.6 52.1 9.9
2002-02-21 09:40:46 51°16.262 2°55.89 56.7 2.5 55.1 10.1
2002-02-21 09:40:51 51°16.265 2°55.894 56.7 2.5 49.9 10
2002-02-21 09:40:56 51°16.266 2°55.899 58 2.5 55.7 10
2002-02-21 09:41:01 51°16.268 2°55.903 58.8 2.4 54.2 10
2002-02-21 09:41:06 51°16.27 2°55.908 61.3 2.4 56.4 10
2002-02-21 09:41:11 51°16.271 2°55.912 59.7 2.3 58.9 10.1
2002-02-21 09:41:16 51°16.273 2°55.916 61.8 2.3 63.4 9.9
2002-02-21 09:41:21 51°16.274 2°55.921 60.5 2.3 64.7 10.1
2002-02-21 09:41:26 51°16.277 2°55.924 62 2.2 58.4 10
2002-02-21 09:41:31 51°16.277 2°55.93 63 2.3 65.1 10.1
2002-02-21 09:41:36 51°16.28 2°55.932 63.3 2.2 54.3 10.1
2002-02-21 09:41:41 51°16.28 2°55.938 64.8 2.2 67 10
2002-02-21 09:41:46 51°16.282 2°55.941 63.5 2.1 55.1 9.9
2002-02-21 09:41:51 51°16.282 2°55.946 66 2 71.6 10
2002-02-21 09:41:56 51°16.284 2°55.948 63.2 1.8 67 10.1
2002-02-21 09:42:01 51°16.285 2°55.952 65.7 1.7 69.6 10
2002-02-21 09:42:06 51°16.285 2°55.955 63.5 1.5 65.1 9.9
2002-02-21 09:42:11 51°16.286 2°55.958 62.7 1.4 67.1 9.7
2002-02-21 09:42:16 51°16.287 2°55.96 63.3 1.2 59.1 9.6
2002-02-21 09:42:21 51°16.287 2°55.963 62.3 1.2 75.6 9.7
2002-02-21 09:42:26 51°16.288 2°55.964 62.2 1 63.2 9.8
2002-02-21 09:42:31 51°16.287 2°55.967 61.8 1 85.7 10.1
2002-02-21 09:42:36 51°16.289 2°55.967 60.7 0.8 63.4 10
2002-02-21 09:42:41 51°16.287 2°55.971 61.2 1 94.6 10
2002-02-21 09:42:46 51°16.289 2°55.971 60.8 0.7 84.9 9.8
2002-02-21 09:42:51 51°16.288 2°55.973 60.7 0.8 103.8 9.7
2002-02-21 09:42:56 51°16.289 2°55.974 59 0.5 58 9.6
2002-02-21 09:43:01 51°16.288 2°55.975 59 0.6 84.4 9.6
2002-02-21 09:43:06 51°16.289 2°55.976 56.3 0.6 27.2 9.7
2002-02-21 09:43:11 51°16.29 2°55.976 54.3 0.4 44.3 9.9
2002-02-21 09:43:16 51°16.289 2°55.977 56 0.3 97.6 10.1
2002-02-21 09:43:21 51°16.29 2°55.976 54.8 0.2 352 10.3
2002-02-21 09:43:26 51°16.289 2°55.977 54.3 0.1 204.9 10.3
2002-02-21 09:43:31 51°16.289 2°55.977 51.2 0.1 162.9 10.1
2002-02-21 09:43:36 51°16.29 2°55.975 52.7 0.1 194.8 9.9
2002-02-21 09:43:41 51°16.289 2°55.976 53 0.1 179.2 9.7
2002-02-21 09:43:46 51°16.288 2°55.977 52 0.2 214.7 9.8
2002-02-21 09:43:51 51°16.289 2°55.975 50.2 0.2 272.6 9.9
2002-02-21 09:43:56 51°16.288 2°55.976 50.3 0.3 212.6 10
2002-02-21 09:44:01 51°16.288 2°55.974 47 0.3 258.6 10.2
2002-02-21 09:44:06 51°16.288 2°55.974 47.8 0.3 219 10.2
2002-02-21 09:44:11 51°16.287 2°55.974 47 0.4 236.5 10.3
2002-02-21 09:44:16 51°16.287 2°55.973 46.5 0.4 225.1 10.3
2002-02-21 09:44:21 51°16.287 2°55.973 46.7 0.3 219.9 10.3
2002-02-21 09:44:26 51°16.287 2°55.972 45.5 0.3 223.2 10.2
2002-02-21 09:44:31 51°16.286 2°55.972 46 0.3 170.8 9.9
2002-02-21 09:44:36 51°16.286 2°55.973 45 0.3 151.6 9.7
2002-02-21 09:44:41 51°16.287 2°55.97 45.5 0.3 301 9.7
2002-02-21 09:44:46 51°16.286 2°55.973 45.3 0.1 75.2 9.7
2002-02-21 09:44:51 51°16.287 2°55.972 42.7 0.4 5.8 9.8
2002-02-21 09:44:56 51°16.287 2°55.974 46.3 0.7 38.4 9.9
2002-02-21 09:45:01 51°16.289 2°55.976 44 1 36.2 9.9
2002-02-21 09:45:06 51°16.29 2°55.977 46 1.3 36.2 9.9
2002-02-21 09:45:11 51°16.292 2°55.979 46.7 1.5 38.9 10
2002-02-21 09:45:16 51°16.294 2°55.982 48.2 1.7 37.1 10.1
2002-02-21 09:45:21 51°16.296 2°55.985 50 1.9 41.2 10.1
2002-02-21 09:45:26 51°16.297 2°55.989 53.7 2 44.9 10
2002-02-21 09:45:31 51°16.3 2°55.992 57.2 2.2 50.5 9.8
2002-02-21 09:45:36 51°16.301 2°55.998 60 2.4 62.6 9.7
2002-02-21 09:45:41 51°16.303 2°56.002 62.5 2.5 58.1 9.6
2002-02-21 09:45:46 51°16.303 2°56.008 66.7 2.6 72.6 9.8
2002-02-21 09:45:51 51°16.306 2°56.014 69.2 2.8 65.6 9.8
2002-02-21 09:45:56 51°16.305 2°56.021 72.5 2.9 79.3 9.7
2002-02-21 09:46:01 51°16.307 2°56.027 75.7 3 77.6 9.8
2002-02-21 09:46:06 51°16.306 2°56.034 80.7 3 85 9.9
2002-02-21 09:46:11 51°16.308 2°56.041 80.8 3.1 83.9 10
2002-02-21 09:46:16 51°16.308 2°56.048 85.7 3.3 89.1 10
2002-02-21 09:46:21 51°16.307 2°56.056 87.7 3.4 92.1 10
2002-02-21 09:46:26 51°16.306 2°56.064 92 3.5 100.3 10.1
2002-02-21 09:46:31 51°16.305 2°56.071 96.7 3.5 100 9.9
2002-02-21 09:46:36 51°16.302 2°56.079 100.2 3.8 109.3 9.9
2002-02-21 09:46:41 51°16.301 2°56.086 106.5 3.6 110.5 9.6
2002-02-21 09:46:46 51°16.297 2°56.094 108.2 3.8 122.1 9.4
2002-02-21 09:46:51 51°16.294 2°56.101 111.7 4 121.7 9.4
2002-02-21 09:46:56 51°16.291 2°56.109 114.8 4 123.6 9.6
2002-02-21 09:47:01 51°16.287 2°56.116 117.3 4.2 129 9.9
2002-02-21 09:47:06 51°16.284 2°56.124 119.5 4.2 127.9 10.2
2002-02-21 09:47:11 51°16.279 2°56.129 121.7 4 134.4 10.4
2002-02-21 09:47:16 51°16.276 2°56.136 124.7 4 133.6 10.4
2002-02-21 09:47:21 51°16.271 2°56.142 126 4.2 138 10.4
2002-02-21 09:47:26 51°16.267 2°56.147 128.7 4 140.3 10.4
2002-02-21 09:47:31 51°16.262 2°56.151 133.3 4 145.3 10.1
2002-02-21 09:47:36 51°16.257 2°56.157 135.5 4.3 147.6 10
2002-02-21 09:47:41 51°16.252 2°56.16 140.2 3.9 151.6 9.9
2002-02-21 09:47:46 51°16.246 2°56.164 144 4.2 154.7 9.7
2002-02-21 09:47:51 51°16.24 2°56.167 145.3 4.4 158.6 9.8
2002-02-21 09:47:56 51°16.236 2°56.169 151.2 4.1 161 9.7
2002-02-21 09:48:01 51°16.229 2°56.171 154 4.2 166.1 9.8
2002-02-21 09:48:06 51°16.223 2°56.174 157 4.5 168.3 9.9
2002-02-21 09:48:11 51°16.218 2°56.174 159.8 4.3 171.8 9.7
2002-02-21 09:48:16 51°16.211 2°56.175 163.3 4.4 175.2 9.9
2002-02-21 09:48:21 51°16.206 2°56.175 165.8 4.3 175.8 9.8
2002-02-21 09:48:26 51°16.2 2°56.175 168.8 4.3 180.5 9.7
2002-02-21 09:48:31 51°16.193 2°56.175 170.8 4.4 180 9.6
2002-02-21 09:48:36 51°16.187 2°56.174 173.2 4.6 183.2 9.7
2002-02-21 09:48:41 51°16.181 2°56.174 176 4.5 184.2 9.7
2002-02-21 09:48:46 51°16.174 2°56.172 177.7 4.6 188.3 9.6
2002-02-21 09:48:51 51°16.168 2°56.17 180.3 4.7 188.9 9.7
2002-02-21 09:48:56 51°16.162 2°56.168 183.3 4.6 192.4 9.6
2002-02-21 09:49:01 51°16.155 2°56.166 184.7 4.7 193.2 9.6
2002-02-21 09:49:06 51°16.149 2°56.162 187.8 4.7 195.8 9.6
2002-02-21 09:49:11 51°16.143 2°56.16 190.5 4.7 195.5 9.6
2002-02-21 09:49:16 51°16.137 2°56.154 193 4.7 202 9.5
2002-02-21 09:49:21 51°16.131 2°56.152 196.8 4.7 199.4 9.5
2002-02-21 09:49:26 51°16.125 2°56.146 199.8 4.8 205.5 9.5
2002-02-21 09:49:31 51°16.119 2°56.141 202.3 4.7 207.8 9.4
2002-02-21 09:49:36 51°16.113 2°56.137 205.7 4.9 208.3 9.5
2002-02-21 09:49:41 51°16.109 2°56.13 209 4.7 214.4 9.2
2002-02-21 09:49:46 51°16.102 2°56.125 210.3 4.8 211.1 9.1
2002-02-21 09:49:51 51°16.098 2°56.117 214.7 4.8 219.4 8.8
2002-02-21 09:49:56 51°16.092 2°56.113 213.7 4.7 212.8 8.5
2002-02-21 09:50:01 51°16.088 2°56.103 216.3 4.9 223.2 8.6
2002-02-21 09:50:06 51°16.081 2°56.1 218.7 4.8 212.5 8.9
2002-02-21 09:50:11 51°16.078 2°56.09 218.8 4.8 222.5 9.1
2002-02-21 09:50:16 51°16.072 2°56.085 223.3 4.7 221.2 9.5
2002-02-21 09:50:21 51°16.068 2°56.076 224.2 4.7 226.4 9.6
2002-02-21 09:50:26 51°16.064 2°56.069 226.7 4.7 226.4 9.6
2002-02-21 09:50:31 51°16.06 2°56.061 230.2 4.6 229.4 9.7
2002-02-21 09:50:36 51°16.055 2°56.055 231.3 4.5 228.4 9.7
2002-02-21 09:50:41 51°16.052 2°56.046 235.2 4.5 233.5 9.5
2002-02-21 09:50:46 51°16.048 2°56.039 237.5 4.5 233.7 9.5
2002-02-21 09:50:51 51°16.044 2°56.03 238.8 4.4 234 9.5
2002-02-21 09:50:56 51°16.042 2°56.021 242.2 4.4 239.1 9.4
2002-02-21 09:51:01 51°16.038 2°56.014 245.5 4.4 236.9 9.6
2002-02-21 09:51:06 51°16.036 2°56.005 245 4.4 242.3 9.5
2002-02-21 09:51:11 51°16.033 2°55.996 250.3 4.4 243.6 9.3
2002-02-21 09:51:16 51°16.03 2°55.988 250.7 4.3 243.8 9.4
2002-02-21 09:51:21 51°16.028 2°55.979 252.2 4.3 245.7 9.4
2002-02-21 09:51:26 51°16.024 2°55.971 253.8 4.4 240.9 9.2
2002-02-21 09:51:31 51°16.024 2°55.962 254 4.2 248.7 9.1
2002-02-21 09:51:36 51°16.02 2°55.954 255.5 4.2 244.8 9
2002-02-21 09:51:41 51°16.018 2°55.945 256.2 4.1 247 9.2
2002-02-21 09:51:46 51°16.016 2°55.937 257.7 4 245.6 9.3
2002-02-21 09:51:51 51°16.015 2°55.929 256.8 3.9 250.8 9.3
2002-02-21 09:51:56 51°16.011 2°55.921 259 4 245.4 9.2
2002-02-21 09:52:01 51°16.011 2°55.912 260.2 3.9 254.3 9.2
2002-02-21 09:52:06 51°16.008 2°55.905 261.2 3.8 247.8 9.4
2002-02-21 09:52:11 51°16.007 2°55.897 261.5 3.8 253 9.4
2002-02-21 09:52:16 51°16.006 2°55.889 261.5 3.7 254.6 9.3
2002-02-21 09:52:21 51°16.002 2°55.881 263.3 3.9 247.3 9.5
2002-02-21 09:52:26 51°16.002 2°55.874 263.2 3.7 252.6 9.4
2002-02-21 09:52:31 51°15.999 2°55.867 264.5 3.6 247.6 9.4
2002-02-21 09:52:36 51°15.997 2°55.859 264.8 3.4 247.8 9.3
2002-02-21 09:52:41 51°15.996 2°55.853 266.7 3.4 246.9 9.1
2002-02-21 09:52:46 51°15.995 2°55.846 266.7 3.2 252.6 9.2
2002-02-21 09:52:51 51°15.993 2°55.839 269.2 3.3 249.8 9.4
2002-02-21 09:52:56 51°15.991 2°55.833 271.3 3.1 249.8 9.3
2002-02-21 09:53:01 51°15.99 2°55.827 273.2 3 249 9.5
2002-02-21 09:53:06 51°15.99 2°55.821 272.5 2.8 258.9 9.3
2002-02-21 09:53:11 51°15.987 2°55.815 276 3 251 9.1
2002-02-21 09:53:16 51°15.988 2°55.808 278.2 2.8 259.8 9.4
2002-02-21 09:53:21 51°15.987 2°55.802 281 2.8 258.3 9.5
2002-02-21 09:53:26 51°15.987 2°55.796 282.5 2.7 263.5 9.2
2002-02-21 09:53:31 51°15.985 2°55.79 286.3 2.8 254.9 9.4
2002-02-21 09:53:36 51°15.986 2°55.785 287 2.6 263.3 9.4
2002-02-21 09:53:41 51°15.984 2°55.779 289.3 2.7 258.1 9.4
2002-02-21 09:53:46 51°15.984 2°55.774 290.7 2.4 263.1 9.5
2002-02-21 09:53:51 51°15.983 2°55.768 292.8 2.4 261.8 9.4
2002-02-21 09:53:56 51°15.982 2°55.764 294.2 2.4 256 9.3
2002-02-21 09:54:01 51°15.982 2°55.758 297.5 2.4 258 9.2
2002-02-21 09:54:06 51°15.982 2°55.755 296.2 2.1 265.5 9.1
2002-02-21 09:54:11 51°15.98 2°55.748 299.8 2.4 256.3 6.1
2002-02-21 09:54:16 51°15.982 2°55.745 301.3 2.1 267.9 9.4
2002-02-21 09:54:21 51°15.98 2°55.738 301.7 2.4 259.3 9.6
2002-02-21 09:54:26 51°15.981 2°55.735 302.8 2.2 267.2 9.6
2002-02-21 09:54:31 51°15.98 2°55.728 301.7 2.4 262.1 9.6
2002-02-21 09:54:36 51°15.98 2°55.725 302.5 2.2 269.9 9.6
2002-02-21 09:54:41 51°15.979 2°55.718 302.5 2.4 261.3 9.6
2002-02-21 09:54:46 51°15.98 2°55.714 303.3 2.3 268.8 9.5
2002-02-21 09:54:51 51°15.979 2°55.709 303 2.4 262.3 9.3
2002-02-21 09:54:56 51°15.979 2°55.704 303.8 2.2 265 9.1
2002-02-21 09:55:01 51°15.978 2°55.699 302.2 2.2 261.5 9
2002-02-21 09:55:06 51°15.978 2°55.694 303.7 2.2 260.1 9
2002-02-21 09:55:11 51°15.978 2°55.691 302.7 2.1 259.3 9
2002-02-21 09:55:16 51°15.977 2°55.686 301.2 2 260.8 8.9
2002-02-21 09:55:21 51°15.977 2°55.681 301.7 2.1 258.1 9
2002-02-21 09:55:26 51°15.977 2°55.677 301.7 2 263.3 9.2
2002-02-21 09:55:31 51°15.976 2°55.672 301.7 2.1 261.2 9.4
2002-02-21 09:55:36 51°15.976 2°55.667 302.7 2.1 264.5 9.5
2002-02-21 09:55:41 51°15.975 2°55.663 302.5 2.2 261.1 9.6
2002-02-21 09:55:46 51°15.976 2°55.658 302.3 2.2 267.1 9.5
2002-02-21 09:55:51 51°15.975 2°55.652 303.8 2.4 261.2 9.5
2002-02-21 09:55:56 51°15.975 2°55.648 305 2.3 267.3 9.3
2002-02-21 09:56:01 51°15.975 2°55.643 304.3 2.2 269.2 9.4
2002-02-21 09:56:06 51°15.975 2°55.638 305.5 2.3 266.2 9.4
2002-02-21 09:56:11 51°15.975 2°55.633 307.5 2.3 270.8 9.3
2002-02-21 09:56:16 51°15.975 2°55.628 307.2 2.3 269.3 9.3
2002-02-21 09:56:21 51°15.975 2°55.623 307.7 2.3 268.1 9.5
2002-02-21 09:56:26 51°15.975 2°55.619 308 2.1 270.8 9.4
2002-02-21 09:56:31 51°15.975 2°55.613 309 2.1 271.7 9.3
2002-02-21 09:56:36 51°15.975 2°55.61 309 2 275.4 9.2
2002-02-21 09:56:41 51°15.974 2°55.604 310.3 2.2 266.6 9.1
2002-02-21 09:56:46 51°15.975 2°55.6 310.8 2 269.9 9.3
2002-02-21 09:56:51 51°15.974 2°55.595 309.5 2.2 265 9.3
2002-02-21 09:56:56 51°15.974 2°55.59 310.7 2.1 267.8 9.4
2002-02-21 09:57:01 51°15.974 2°55.585 311.2 2.2 270.7 9.2
2002-02-21 09:57:06 51°15.974 2°55.581 310.8 2.2 266.9 9.3
2002-02-21 09:57:11 51°15.975 2°55.576 310.5 2.1 270.3 9.1
2002-02-21 09:57:16 51°15.975 2°55.572 309.8 2 270.1 9.1
2002-02-21 09:57:21 51°15.974 2°55.566 311.2 2.2 265.7 9
2002-02-21 09:57:26 51°15.974 2°55.562 310.8 2.1 267.3 9
2002-02-21 09:57:31 51°15.974 2°55.557 309.5 2.2 266.2 9.2
2002-02-21 09:57:36 51°15.974 2°55.553 308.8 2 267.5 9.3
2002-02-21 09:57:41 51°15.974 2°55.547 311.3 2.2 267.2 9.4
2002-02-21 09:57:47 51°15.974 2°55.543 309.8 1.9 271.5 9.5
2002-02-21 09:57:51 51°15.973 2°55.538 311.5 2.2 264.9 9.5
2002-02-21 09:57:56 51°15.973 2°55.534 312.7 2.1 267.5 9.6
2002-02-21 09:58:01 51°15.973 2°55.53 310.3 2.1 268.6 9.3
2002-02-21 09:58:06 51°15.972 2°55.524 312.5 2.2 265.8 9.3
2002-02-21 09:58:11 51°15.973 2°55.521 311.2 2 270.1 9.3
2002-02-21 09:58:16 51°15.972 2°55.515 312 2.1 265.3 9.3
2002-02-21 09:58:21 51°15.973 2°55.511 314.2 2 270.3 9.4
2002-02-21 09:58:26 51°15.972 2°55.506 313 2.1 267.2 9.5
2002-02-21 09:58:31 51°15.973 2°55.502 315.3 2 272.4 9.5
2002-02-21 09:58:36 51°15.972 2°55.497 315.8 2.1 268.4 9.5
2002-02-21 09:58:41 51°15.973 2°55.493 315.5 1.9 276.2 9.4
2002-02-21 09:58:46 51°15.972 2°55.488 316.3 2.1 268.1 9.4
2002-02-21 09:58:51 51°15.973 2°55.484 319.5 1.9 276.5 9.3
2002-02-21 09:58:56 51°15.973 2°55.481 317.3 1.8 273.5 9.3
2002-02-21 09:59:01 51°15.973 2°55.475 319 2 265.8 9.3
2002-02-21 09:59:06 51°15.973 2°55.472 320.8 2 269.6 9.4
2002-02-21 09:59:11 51°15.973 2°55.467 317.7 2 267.3 9.4
2002-02-21 09:59:16 51°15.973 2°55.463 318.2 1.9 269.5 9.5
2002-02-21 09:59:21 51°15.973 2°55.458 319.3 2.1 270.5 9.6
2002-02-21 09:59:26 51°15.973 2°55.454 319 2 275 9.7
2002-02-21 09:59:31 51°15.974 2°55.449 319.5 2.1 277.1 9.8
2002-02-21 09:59:36 51°15.974 2°55.445 318.5 1.9 279.8 9.6
2002-02-21 09:59:41 51°15.974 2°55.439 321.2 2.2 274.6 9.5
2002-02-21 09:59:46 51°15.975 2°55.436 319.3 2.1 276.3 9.5
2002-02-21 09:59:51 51°15.975 2°55.428 320.5 2.4 271.1 9.6
2002-02-21 09:59:56 51°15.976 2°55.426 320.2 2.1 278.2 9.7
2002-02-21 10:00:01 51°15.975 2°55.419 316.7 2.4 271.2 9.8
2002-02-21 10:00:06 51°15.976 2°55.416 318.7 2.3 277.3 9.8
2002-02-21 10:00:11 51°15.976 2°55.41 315.3 2.4 272.9 9.8
2002-02-21 10:00:16 51°15.977 2°55.404 316.7 2.4 274.7 9.7
2002-02-21 10:00:21 51°15.977 2°55.4 316 2.3 273.6 9.7
2002-02-21 10:00:26 51°15.978 2°55.395 313.5 2.3 278.5 9.6
2002-02-21 10:00:31 51°15.977 2°55.389 313.7 2.5 273 9.7
2002-02-21 10:00:36 51°15.978 2°55.384 313.5 2.3 281.1 9.7
2002-02-21 10:00:41 51°15.978 2°55.378 313.5 2.5 272.3 9.7
2002-02-21 10:00:46 51°15.979 2°55.374 314.3 2.4 279 9.6
2002-02-21 10:00:51 51°15.978 2°55.367 314.5 2.5 272.4 9.6
2002-02-21 10:00:56 51°15.98 2°55.363 316.3 2.3 282.2 9.6
2002-02-21 10:01:01 51°15.979 2°55.357 316.5 2.4 275.8 9.6
2002-02-21 10:01:06 51°15.981 2°55.353 318.5 2.2 283.9 9.6
2002-02-21 10:01:11 51°15.981 2°55.347 318.3 2.4 280.7 9.7
2002-02-21 10:01:16 51°15.982 2°55.343 319.3 2.4 284.5 9.8
2002-02-21 10:01:21 51°15.983 2°55.337 321.3 2.5 281.4 9.6
2002-02-21 10:01:26 51°15.984 2°55.333 322 2.4 288.6 9.8
2002-02-21 10:01:31 51°15.984 2°55.326 323.3 2.5 282.9 9.9
2002-02-21 10:01:36 51°15.986 2°55.323 326.3 2.2 288.8 9.8
2002-02-21 10:01:41 51°15.986 2°55.317 326.3 2.2 285.3 9.8
2002-02-21 10:01:46 51°15.988 2°55.313 328.5 2.1 289.9 9.7
2002-02-21 10:01:51 51°15.989 2°55.309 328.8 2.2 288.7 9.6
2002-02-21 10:01:56 51°15.99 2°55.304 331.8 2.1 291.1 9.6
2002-02-21 10:02:01 51°15.99 2°55.3 332.3 2.2 289.8 9.7
2002-02-21 10:02:06 51°15.992 2°55.296 333.8 2 296 9.6
2002-02-21 10:02:11 51°15.993 2°55.291 335.7 2.1 290.7 9.7
2002-02-21 10:02:16 51°15.994 2°55.287 338.2 2 295.2 9.6
2002-02-21 10:02:21 51°15.995 2°55.283 338.3 2 291.2 9.5
2002-02-21 10:02:26 51°15.996 2°55.279 341 1.9 294.8 9.4
2002-02-21 10:02:31 51°15.997 2°55.275 340.3 2 292.1 9.5
2002-02-21 10:02:36 51°15.997 2°55.27 341.3 2.1 288.6 9.6